Time;durP1;ratioP1;P1;durP2;ratioP2;P2;SDS_P1;SDS_P2;PMS_P1;PMS_P2;Temp;Humidity;BMP_temperature;BMP_pressure;BME280_temperature;BME280_humidity;BME280_pressure;Samples;Min_cycle;Max_cycle;Signal;HPM_P1;HPM_P2
2024/03/26 00:01:06;;;;;;;0.28;0.28;;;6.90;99.90;;;;;;4980699;28;20034;-87
2024/03/26 00:03:33;;;;;;;0.30;0.30;;;6.90;99.90;;;;;;5002932;28;20402;-86
2024/03/26 00:05:59;;;;;;;0.20;0.20;;;6.90;99.90;;;;;;4987667;28;20125;-86
2024/03/26 00:08:25;;;;;;;0.30;0.30;;;6.90;99.90;;;;;;5009226;28;20041;-87
2024/03/26 00:10:51;;;;;;;0.30;0.30;;;6.80;99.90;;;;;;4998298;28;20030;-86
2024/03/26 00:13:18;;;;;;;0.88;0.68;;;6.70;99.90;;;;;;4981412;28;20379;-87
2024/03/26 00:15:44;;;;;;;0.10;0.10;;;6.70;99.90;;;;;;4988006;28;20463;-86
2024/03/26 00:18:10;;;;;;;0.13;0.13;;;6.60;99.90;;;;;;4998684;28;20054;-86
2024/03/26 00:20:36;;;;;;;0.20;0.20;;;6.40;99.90;;;;;;5005308;28;20378;-86
2024/03/26 00:23:02;;;;;;;0.45;0.45;;;6.50;99.90;;;;;;4998210;28;20347;-88
2024/03/26 00:25:28;;;;;;;0.10;0.10;;;6.70;99.90;;;;;;4992275;28;20030;-88
2024/03/26 00:27:55;;;;;;;0.40;0.40;;;6.70;99.90;;;;;;4988703;28;20111;-88
2024/03/26 00:30:21;;;;;;;0.20;0.20;;;6.70;99.90;;;;;;4986875;28;20045;-87
2024/03/26 00:32:47;;;;;;;0.30;0.30;;;6.70;99.90;;;;;;4981204;28;20054;-88
2024/03/26 00:35:13;;;;;;;0.20;0.20;;;6.80;99.90;;;;;;5021611;28;20046;-84
2024/03/26 00:37:39;;;;;;;0.10;0.10;;;6.80;99.90;;;;;;5013165;28;20041;-87
2024/03/26 00:40:06;;;;;;;0.20;0.20;;;6.90;99.90;;;;;;4997862;28;20030;-86
2024/03/26 00:42:32;;;;;;;0.10;0.10;;;6.90;99.90;;;;;;4976871;28;20050;-86
2024/03/26 00:44:58;;;;;;;25.73;2.95;;;6.80;99.90;;;;;;4983010;28;20034;-86
2024/03/26 00:47:25;;;;;;;0.10;0.10;;;6.70;99.90;;;;;;4991070;28;20042;-86
2024/03/26 00:49:51;;;;;;;0.10;0.10;;;6.60;99.90;;;;;;5008895;28;20053;-84
2024/03/26 00:52:17;;;;;;;0.10;0.10;;;6.40;99.90;;;;;;4981344;28;20475;-84
2024/03/26 00:54:43;;;;;;;0.10;0.10;;;6.30;99.90;;;;;;4999708;28;20454;-85
2024/03/26 00:57:09;;;;;;;0.20;0.20;;;6.20;99.90;;;;;;4975584;28;20043;-83
2024/03/26 00:59:35;;;;;;;0.10;0.10;;;6.00;99.90;;;;;;4987070;28;20035;-85
2024/03/26 01:02:01;;;;;;;0.93;0.32;;;5.80;99.90;;;;;;4989428;28;20030;-85
2024/03/26 01:04:27;;;;;;;0.50;0.50;;;5.70;99.90;;;;;;5004982;28;20041;-85
2024/03/26 01:06:53;;;;;;;0.10;0.10;;;5.70;99.90;;;;;;4981737;28;20047;-85
2024/03/26 01:09:20;;;;;;;0.15;0.15;;;5.60;99.90;;;;;;4992724;28;20069;-85
2024/03/26 01:11:46;;;;;;;0.40;0.40;;;5.50;99.90;;;;;;4993858;28;20038;-86
2024/03/26 01:14:12;;;;;;;0.13;0.13;;;5.50;99.90;;;;;;4990117;28;20031;-86
2024/03/26 01:16:38;;;;;;;0.57;0.52;;;5.50;99.90;;;;;;4985189;28;20039;-87
2024/03/26 01:19:04;;;;;;;0.10;0.10;;;5.40;99.90;;;;;;5015940;28;20050;-86
2024/03/26 01:21:30;;;;;;;0.10;0.10;;;5.30;99.90;;;;;;5000937;28;20559;-84
2024/03/26 01:23:57;;;;;;;1.08;0.20;;;5.20;99.90;;;;;;4981208;28;20046;-85
2024/03/26 01:26:23;;;;;;;2.65;0.60;;;5.20;99.90;;;;;;4987610;28;20031;-86
2024/03/26 01:28:49;;;;;;;0.15;0.15;;;5.30;99.90;;;;;;5006826;28;20057;-85
2024/03/26 01:31:15;;;;;;;0.10;0.10;;;5.20;99.90;;;;;;4979132;28;20030;-86
2024/03/26 01:33:41;;;;;;;0.20;0.20;;;5.10;99.90;;;;;;4996371;28;20363;-86
2024/03/26 01:36:07;;;;;;;0.10;0.10;;;5.00;99.90;;;;;;4973512;28;20045;-84
2024/03/26 01:38:33;;;;;;;0.75;0.30;;;4.90;99.90;;;;;;4994249;28;20102;-85
2024/03/26 01:40:59;;;;;;;0.38;0.38;;;4.80;99.90;;;;;;4991061;28;20026;-84
2024/03/26 01:43:25;;;;;;;0.82;0.43;;;4.70;99.90;;;;;;4987716;28;20062;-85
2024/03/26 01:45:52;;;;;;;5.32;0.82;;;4.60;1.00;;;;;;4982796;28;20039;-85
2024/03/26 01:48:18;;;;;;;0.32;0.32;;;4.60;1.00;;;;;;4994926;28;20375;-85
2024/03/26 01:50:44;;;;;;;0.30;0.30;;;4.60;1.00;;;;;;5004969;28;20053;-85
2024/03/26 01:53:11;;;;;;;0.10;0.10;;;4.60;1.00;;;;;;4989969;28;20037;-82
2024/03/26 01:55:37;;;;;;;0.10;0.10;;;4.60;1.00;;;;;;4989289;28;20030;-85
2024/03/26 01:58:05;;;;;;;0.13;0.13;;;4.50;1.00;;;;;;4986495;28;20038;-85
2024/03/26 02:00:33;;;;;;;0.10;0.10;;;4.40;1.00;;;;;;4977684;28;20045;-85
2024/03/26 02:02:59;;;;;;;0.30;0.30;;;4.40;1.00;;;;;;5013582;28;20037;-85
2024/03/26 02:05:25;;;;;;;1.02;0.93;;;4.30;1.00;;;;;;4998314;28;20391;-84
2024/03/26 02:07:51;;;;;;;0.10;0.10;;;4.20;1.00;;;;;;5008751;28;20022;-85
2024/03/26 02:10:19;;;;;;;8.05;0.52;;;4.20;1.00;;;;;;4979688;28;20149;-85
2024/03/26 02:12:45;;;;;;;0.10;0.10;;;4.20;1.00;;;;;;4986034;28;20471;-84
2024/03/26 02:15:11;;;;;;;0.22;0.22;;;4.00;1.00;;;;;;4984252;28;20034;-82
2024/03/26 02:17:37;;;;;;;0.40;0.40;;;3.80;1.00;;;;;;4975104;28;20038;-85
2024/03/26 02:20:04;;;;;;;1.02;0.30;;;3.80;1.00;;;;;;5000172;28;20042;-84
2024/03/26 02:22:30;;;;;;;0.15;0.15;;;3.80;1.00;;;;;;5019426;28;20124;-84
2024/03/26 02:24:57;;;;;;;0.10;0.10;;;3.70;1.00;;;;;;4992507;28;20402;-85
2024/03/26 02:27:23;;;;;;;0.10;0.10;;;3.70;1.00;;;;;;4986113;28;20043;-85
2024/03/26 02:29:49;;;;;;;0.10;0.10;;;3.70;1.00;;;;;;4985899;28;20038;-87
2024/03/26 02:32:15;;;;;;;0.30;0.30;;;3.70;1.00;;;;;;4962513;28;20046;-86
2024/03/26 02:34:41;;;;;;;0.52;0.52;;;3.50;1.00;;;;;;5001424;28;20026;-87
2024/03/26 02:37:07;;;;;;;0.10;0.10;;;3.50;1.00;;;;;;4996816;28;20030;-83
2024/03/26 02:39:33;;;;;;;0.00;0.00;;;3.50;24.20;;;;;;4995642;28;20045;-85
2024/03/26 02:42:00;;;;;;;0.15;0.15;;;3.50;1.80;;;;;;4989799;28;20030;-85
2024/03/26 02:44:26;;;;;;;0.10;0.10;;;3.40;28.20;;;;;;4991112;28;20026;-85
2024/03/26 02:46:52;;;;;;;0.20;0.20;;;3.30;30.00;;;;;;5002024;28;20466;-86
2024/03/26 02:49:18;;;;;;;9.32;2.17;;;3.20;40.50;;;;;;5012085;28;20042;-86
2024/03/26 02:51:45;;;;;;;0.50;0.40;;;3.10;52.80;;;;;;5008915;28;20462;-86
2024/03/26 02:54:11;;;;;;;0.17;0.17;;;3.10;99.90;;;;;;4991739;28;20041;-83
2024/03/26 02:56:37;;;;;;;0.30;0.30;;;3.00;99.90;;;;;;4993882;28;20050;-85
2024/03/26 02:59:03;;;;;;;0.40;0.40;;;2.90;99.90;;;;;;4970210;28;20035;-86
2024/03/26 03:01:29;;;;;;;0.10;0.10;;;2.90;99.90;;;;;;4981479;28;20041;-87
2024/03/26 03:03:55;;;;;;;0.10;0.10;;;2.90;99.90;;;;;;5004207;28;20031;-87
2024/03/26 03:06:21;;;;;;;0.08;0.08;;;2.70;99.90;;;;;;4997625;28;20042;-86
2024/03/26 03:08:48;;;;;;;0.80;0.75;;;2.70;99.90;;;;;;4996047;28;20038;-87
2024/03/26 03:11:14;;;;;;;0.15;0.15;;;2.70;99.90;;;;;;4984395;28;20038;-83
2024/03/26 03:13:40;;;;;;;0.00;0.00;;;2.60;99.90;;;;;;4966174;28;20041;-85
2024/03/26 03:16:06;;;;;;;0.73;0.57;;;2.60;99.90;;;;;;4982977;28;20038;-87
2024/03/26 03:18:32;;;;;;;0.20;0.20;;;2.60;99.90;;;;;;4976052;28;20042;-85
2024/03/26 03:20:58;;;;;;;0.10;0.10;;;2.50;99.90;;;;;;5000697;28;20039;-86
2024/03/26 03:23:25;;;;;;;0.17;0.17;;;2.40;99.90;;;;;;4995912;28;20030;-85
2024/03/26 03:25:55;;;;;;;0.00;0.00;;;2.40;99.90;;;;;;4997332;28;20041;-85
2024/03/26 03:28:22;;;;;;;1.23;0.73;;;2.40;99.90;;;;;;4990520;28;20337;-84
2024/03/26 03:30:48;;;;;;;0.15;0.15;;;2.50;99.90;;;;;;4974432;28;20051;-85
2024/03/26 03:33:14;;;;;;;0.28;0.28;;;2.40;99.90;;;;;;4994499;28;20421;-82
2024/03/26 03:35:41;;;;;;;0.40;0.20;;;2.40;99.90;;;;;;4999052;28;20045;-85
2024/03/26 03:38:07;;;;;;;0.40;0.40;;;2.30;99.90;;;;;;4975905;28;20035;-86
2024/03/26 03:40:34;;;;;;;0.10;0.10;;;2.30;99.90;;;;;;4993568;28;20030;-86
2024/03/26 03:43:00;;;;;;;0.00;0.00;;;2.20;99.90;;;;;;4983475;28;20395;-86
2024/03/26 03:45:28;;;;;;;0.20;0.20;;;2.30;99.90;;;;;;4991102;28;20498;-85
2024/03/26 03:47:54;;;;;;;0.25;0.25;;;2.30;99.90;;;;;;4978297;28;20390;-87
2024/03/26 03:50:21;;;;;;;0.17;0.17;;;2.30;99.90;;;;;;5001397;28;20391;-86
2024/03/26 03:52:47;;;;;;;0.80;0.43;;;2.30;99.90;;;;;;4997948;28;20045;-86
2024/03/26 03:55:14;;;;;;;0.13;0.13;;;2.30;99.90;;;;;;4975939;28;20463;-84
2024/03/26 03:57:40;;;;;;;0.00;0.00;;;2.50;99.90;;;;;;4991355;28;20027;-88
2024/03/26 04:00:08;;;;;;;0.00;0.00;;;2.50;99.90;;;;;;4988762;28;20106;-87
2024/03/26 04:02:40;;;;;;;0.10;0.10;;;2.40;99.90;;;;;;4990224;28;20463;-87
2024/03/26 04:05:06;;;;;;;0.10;0.10;;;2.50;99.90;;;;;;5004857;28;20048;-86
2024/03/26 04:07:34;;;;;;;3.45;0.32;;;2.50;99.90;;;;;;5010452;28;20030;-85
2024/03/26 04:10:00;;;;;;;0.17;0.17;;;2.40;99.90;;;;;;5013636;28;20045;-82
2024/03/26 04:12:27;;;;;;;0.20;0.20;;;2.40;99.90;;;;;;4988623;28;20054;-88
2024/03/26 04:14:53;;;;;;;0.45;0.30;;;2.40;99.90;;;;;;4995282;28;20049;-85
2024/03/26 04:17:19;;;;;;;0.10;0.10;;;2.30;99.90;;;;;;5008606;28;20042;-80
2024/03/26 04:19:46;;;;;;;1.10;0.65;;;2.30;99.90;;;;;;5024294;28;20042;-86
2024/03/26 04:22:12;;;;;;;0.57;0.57;;;2.20;99.90;;;;;;5018736;28;20036;-85
2024/03/26 04:24:38;;;;;;;0.22;0.22;;;2.20;99.90;;;;;;4993879;28;20030;-86
2024/03/26 04:27:04;;;;;;;3.50;0.57;;;2.20;1.00;;;;;;4994069;28;20030;-88
2024/03/26 04:29:30;;;;;;;0.15;0.15;;;2.20;1.00;;;;;;4989520;28;20360;-85
2024/03/26 04:31:56;;;;;;;0.00;0.00;;;2.30;1.00;;;;;;4982242;28;20033;-87
2024/03/26 04:34:23;;;;;;;0.10;0.10;;;2.40;1.00;;;;;;4986182;28;20050;-86
2024/03/26 04:36:51;;;;;;;0.10;0.10;;;2.40;1.00;;;;;;5013016;28;20053;-85
2024/03/26 04:39:18;;;;;;;0.20;0.20;;;2.40;1.00;;;;;;4995422;28;20038;-84
2024/03/26 04:41:44;;;;;;;0.38;0.38;;;2.40;1.00;;;;;;5002782;28;20041;-87
2024/03/26 04:44:10;;;;;;;0.05;0.05;;;2.40;1.00;;;;;;4987709;28;20050;-87
2024/03/26 04:46:36;;;;;;;0.05;0.05;;;2.40;1.00;;;;;;4974185;28;20577;-86
2024/03/26 04:49:02;;;;;;;0.10;0.10;;;2.40;1.00;;;;;;4988624;28;20038;-87
2024/03/26 04:51:28;;;;;;;0.25;0.25;;;2.40;1.00;;;;;;4985675;28;20038;-86
2024/03/26 04:53:54;;;;;;;0.20;0.20;;;2.30;1.00;;;;;;4989203;28;20031;-86
2024/03/26 04:56:21;;;;;;;0.03;0.03;;;2.30;1.00;;;;;;4988808;28;20042;-85
2024/03/26 04:58:47;;;;;;;0.15;0.15;;;2.20;1.00;;;;;;4987914;28;20034;-86
2024/03/26 05:01:13;;;;;;;0.10;0.10;;;2.10;1.00;;;;;;4988705;28;20367;-86
2024/03/26 05:03:39;;;;;;;0.65;0.52;;;2.10;1.00;;;;;;4966269;28;20034;-85
2024/03/26 05:06:06;;;;;;;0.30;0.30;;;2.20;1.00;;;;;;4984070;28;20053;-87
2024/03/26 05:08:32;;;;;;;0.43;0.43;;;2.20;1.00;;;;;;4988527;28;20038;-87
2024/03/26 05:10:58;;;;;;;0.00;0.00;;;2.30;1.00;;;;;;4988406;28;20050;-86
2024/03/26 05:13:25;;;;;;;0.00;0.00;;;2.30;1.00;;;;;;4985879;28;20031;-86
2024/03/26 05:15:52;;;;;;;0.43;0.35;;;2.30;1.00;;;;;;4988885;28;20030;-88
2024/03/26 05:18:18;;;;;;;0.13;0.13;;;2.40;1.00;;;;;;4971876;28;20041;-84
2024/03/26 05:20:44;;;;;;;0.08;0.08;;;2.40;1.00;;;;;;4991232;28;20039;-85
2024/03/26 05:23:10;;;;;;;0.10;0.10;;;2.40;1.00;;;;;;4994182;28;20053;-87
2024/03/26 05:25:36;;;;;;;0.10;0.10;;;2.40;1.00;;;;;;4989576;28;20039;-86
2024/03/26 05:28:03;;;;;;;0.08;0.08;;;2.50;1.00;;;;;;4995816;28;20054;-86
2024/03/26 05:30:29;;;;;;;0.15;0.15;;;2.40;1.00;;;;;;4992069;28;20049;-87
2024/03/26 05:32:55;;;;;;;0.30;0.30;;;2.50;1.00;;;;;;4980411;28;20042;-86
2024/03/26 05:35:21;;;;;;;0.10;0.10;;;2.60;1.00;;;;;;4981237;28;20035;-86
2024/03/26 05:37:48;;;;;;;0.40;0.40;;;2.60;1.00;;;;;;4986637;28;20031;-88
2024/03/26 05:40:15;;;;;;;0.63;0.63;;;2.60;1.00;;;;;;4985935;28;20034;-87
2024/03/26 05:42:42;;;;;;;1.75;1.52;;;2.50;1.00;;;;;;4988231;28;20061;-88
2024/03/26 05:45:08;;;;;;;1.42;1.33;;;2.60;1.00;;;;;;4982053;28;20037;-86
2024/03/26 05:47:35;;;;;;;2.15;1.90;;;2.70;1.00;;;;;;4988134;28;20041;-86
2024/03/26 05:50:04;;;;;;;0.55;0.55;;;2.90;1.00;;;;;;4982060;28;20057;-88
2024/03/26 05:52:30;;;;;;;0.10;0.10;;;3.00;1.00;;;;;;4997137;28;20043;-86
2024/03/26 05:54:56;;;;;;;0.20;0.20;;;3.00;1.00;;;;;;4977992;28;20055;-85
2024/03/26 05:57:22;;;;;;;0.10;0.10;;;3.20;1.00;;;;;;5004436;28;20056;-84
2024/03/26 05:59:48;;;;;;;0.30;0.30;;;3.30;1.00;;;;;;4998411;28;20068;-85
2024/03/26 06:02:14;;;;;;;0.20;0.20;;;3.40;1.00;;;;;;4980196;28;20439;-84
2024/03/26 06:04:41;;;;;;;1.20;0.70;;;3.50;1.00;;;;;;5003841;28;20578;-86
2024/03/26 06:07:08;;;;;;;0.08;0.08;;;3.60;1.00;;;;;;4983403;28;20042;-85
2024/03/26 06:09:34;;;;;;;0.40;0.40;;;3.60;1.00;;;;;;4973620;28;20070;-85
2024/03/26 06:12:00;;;;;;;0.22;0.22;;;3.70;1.00;;;;;;4975435;28;20407;-82
2024/03/26 06:14:26;;;;;;;0.77;0.77;;;3.70;1.00;;;;;;4987858;28;20045;-85
2024/03/26 06:16:52;;;;;;;5.72;0.55;;;3.70;1.00;;;;;;4979520;28;20041;-86
2024/03/26 06:19:18;;;;;;;0.57;0.57;;;3.80;1.00;;;;;;4999999;28;20022;-80
2024/03/26 06:21:45;;;;;;;0.43;0.38;;;3.90;1.00;;;;;;5001515;28;20134;-85
2024/03/26 06:24:11;;;;;;;0.30;0.30;;;4.00;1.00;;;;;;4990756;28;20078;-85
2024/03/26 06:26:37;;;;;;;0.40;0.40;;;4.10;1.00;;;;;;4992217;28;20027;-86
2024/03/26 06:29:03;;;;;;;0.50;0.50;;;4.10;99.90;;;;;;4973007;28;20030;-87
2024/03/26 06:31:30;;;;;;;0.22;0.22;;;4.20;99.90;;;;;;4978178;28;20043;-87
2024/03/26 06:33:56;;;;;;;0.40;0.40;;;4.30;99.90;;;;;;5003453;28;20038;-85
2024/03/26 06:36:22;;;;;;;0.20;0.17;;;4.30;99.90;;;;;;5001707;28;20030;-83
2024/03/26 06:38:48;;;;;;;0.60;0.45;;;4.40;99.90;;;;;;4999055;28;20493;-84
2024/03/26 06:41:14;;;;;;;0.38;0.38;;;4.40;99.90;;;;;;4992226;28;20044;-84
2024/03/26 06:43:40;;;;;;;3.25;0.85;;;4.40;99.90;;;;;;4982560;28;20038;-83
2024/03/26 06:46:06;;;;;;;1.20;1.10;;;4.40;99.90;;;;;;4992768;28;20034;-83
2024/03/26 06:48:33;;;;;;;0.47;0.47;;;4.50;99.90;;;;;;4994560;28;20049;-83
2024/03/26 06:50:59;;;;;;;0.55;0.50;;;4.60;99.90;;;;;;5004772;28;20402;-83
2024/03/26 06:53:25;;;;;;;0.10;0.10;;;4.70;99.90;;;;;;4995215;28;20030;-82
2024/03/26 06:55:51;;;;;;;0.43;0.43;;;4.80;99.90;;;;;;4990197;28;20084;-84
2024/03/26 06:58:18;;;;;;;0.75;0.52;;;4.90;99.90;;;;;;4991005;28;20030;-84
2024/03/26 07:00:44;;;;;;;1.25;1.25;;;5.00;99.90;;;;;;4982818;28;20053;-84
2024/03/26 07:03:11;;;;;;;0.30;0.30;;;5.00;99.90;;;;;;4990542;28;20035;-83
2024/03/26 07:05:37;;;;;;;0.20;0.20;;;5.10;99.90;;;;;;5001986;28;20053;-85
2024/03/26 07:08:04;;;;;;;0.73;0.73;;;5.20;91.20;;;;;;4992628;28;20026;-84
2024/03/26 07:10:31;;;;;;;0.45;0.45;;;5.30;90.60;;;;;;4996547;28;20060;-84
2024/03/26 07:12:57;;;;;;;0.30;0.30;;;5.30;99.90;;;;;;4986726;28;20035;-84
2024/03/26 07:15:23;;;;;;;0.65;0.65;;;5.30;78.20;;;;;;4980921;28;20123;-82
2024/03/26 07:17:49;;;;;;;0.50;0.50;;;5.50;48.50;;;;;;4987643;28;20037;-84
2024/03/26 07:20:15;;;;;;;0.52;0.38;;;5.60;39.30;;;;;;4985173;28;20034;-84
2024/03/26 07:22:41;;;;;;;0.30;0.30;;;5.70;62.50;;;;;;4995574;28;20039;-84
2024/03/26 07:25:08;;;;;;;0.30;0.30;;;5.90;11.00;;;;;;4989163;28;20363;-83
2024/03/26 07:27:34;;;;;;;0.50;0.50;;;5.90;1.00;;;;;;4986474;28;20031;-82
2024/03/26 07:30:04;;;;;;;0.40;0.30;;;6.00;1.00;;;;;;4985258;28;20037;-85
2024/03/26 07:32:30;;;;;;;1.35;0.50;;;6.00;1.00;;;;;;4989265;28;20037;-85
2024/03/26 07:34:56;;;;;;;0.10;0.10;;;6.10;1.00;;;;;;5001459;28;20033;-90
2024/03/26 07:37:22;;;;;;;0.47;0.47;;;6.20;1.00;;;;;;4996808;28;20056;-83
2024/03/26 07:39:48;;;;;;;0.50;0.50;;;6.30;1.00;;;;;;4999787;28;20049;-90
2024/03/26 07:42:18;;;;;;;0.35;0.35;;;6.30;1.00;;;;;;4982268;28;20051;-87
2024/03/26 07:44:44;;;;;;;0.30;0.30;;;6.40;1.00;;;;;;5011334;28;20040;-89
2024/03/26 07:47:10;;;;;;;0.52;0.52;;;6.50;1.00;;;;;;5003183;28;20027;-90
2024/03/26 07:49:36;;;;;;;0.30;0.30;;;6.60;1.00;;;;;;4990766;28;20030;-86
2024/03/26 07:52:03;;;;;;;0.68;0.68;;;6.60;1.00;;;;;;5001424;28;20463;-90
2024/03/26 07:54:32;;;;;;;0.40;0.40;;;6.70;1.00;;;;;;4990898;28;20060;-84
2024/03/26 07:56:58;;;;;;;1.48;0.35;;;6.80;1.00;;;;;;4992223;28;20045;-84
2024/03/26 07:59:24;;;;;;;0.40;0.40;;;6.90;1.00;;;;;;4991519;28;20026;-83
2024/03/26 08:01:50;;;;;;;0.52;0.52;;;6.80;1.00;;;;;;4994131;28;20030;-83
2024/03/26 08:04:17;;;;;;;0.52;0.40;;;6.90;1.00;;;;;;5006640;28;20391;-84
2024/03/26 08:06:43;;;;;;;0.68;0.30;;;7.10;1.00;;;;;;4996391;28;20050;-84
2024/03/26 08:09:09;;;;;;;0.30;0.30;;;7.40;99.90;;;;;;5001838;28;20034;-85
2024/03/26 08:11:35;;;;;;;1.48;0.50;;;7.60;99.90;;;;;;4990489;28;20055;-84
2024/03/26 08:14:01;;;;;;;0.20;0.20;;;7.70;99.90;;;;;;4984721;28;20046;-84
2024/03/26 08:16:28;;;;;;;0.63;0.63;;;7.80;99.90;;;;;;4986319;28;20027;-83
2024/03/26 08:18:54;;;;;;;0.30;0.30;;;7.90;99.90;;;;;;4994384;28;20462;-84
2024/03/26 08:21:20;;;;;;;0.82;0.60;;;8.00;99.90;;;;;;4999971;28;20046;-83
2024/03/26 08:23:46;;;;;;;1.02;0.93;;;8.20;99.90;;;;;;4993363;28;20037;-83
2024/03/26 08:26:12;;;;;;;0.10;0.10;;;8.30;99.90;;;;;;4996599;28;20034;-84
2024/03/26 08:28:39;;;;;;;0.30;0.30;;;8.30;99.90;;;;;;4991391;28;20031;-84
2024/03/26 08:31:05;;;;;;;0.20;0.20;;;8.10;99.90;;;;;;4993512;28;20042;-84
2024/03/26 08:33:32;;;;;;;0.20;0.20;;;8.20;99.90;;;;;;5002129;28;20041;-86
2024/03/26 08:36:04;;;;;;;0.35;0.35;;;8.50;99.90;;;;;;4994211;28;20049;-83
2024/03/26 08:38:31;;;;;;;0.57;0.40;;;8.60;99.90;;;;;;4994073;28;20030;-84
2024/03/26 08:40:57;;;;;;;0.10;0.10;;;8.60;99.90;;;;;;4994657;28;20344;-84
2024/03/26 08:43:23;;;;;;;0.20;0.20;;;8.90;99.90;;;;;;5010130;28;20050;-84
2024/03/26 08:45:50;;;;;;;0.20;0.20;;;9.10;99.90;;;;;;4990610;28;20033;-85
2024/03/26 08:48:16;;;;;;;0.85;0.75;;;9.30;99.90;;;;;;4995015;28;20029;-85
2024/03/26 08:50:42;;;;;;;0.28;0.28;;;9.40;99.90;;;;;;5003591;28;20470;-85
2024/03/26 08:53:09;;;;;;;0.80;0.65;;;9.20;99.90;;;;;;5001713;28;20041;-86
2024/03/26 08:55:35;;;;;;;0.47;0.47;;;9.10;99.90;;;;;;4989347;28;20038;-82
2024/03/26 08:58:01;;;;;;;0.25;0.25;;;9.00;99.90;;;;;;4992484;28;20464;-86
2024/03/26 09:00:27;;;;;;;0.47;0.47;;;9.10;99.90;;;;;;4985796;28;20030;-84
2024/03/26 09:02:54;;;;;;;0.57;0.28;;;9.30;99.90;;;;;;4977969;28;20037;-88
2024/03/26 09:05:20;;;;;;;1.40;0.65;;;9.40;99.90;;;;;;5004092;28;20029;-88
2024/03/26 09:07:47;;;;;;;0.60;0.40;;;9.50;99.90;;;;;;4973335;28;20047;-86
2024/03/26 09:10:13;;;;;;;0.40;0.32;;;9.70;99.90;;;;;;4998016;28;20041;-84
2024/03/26 09:12:40;;;;;;;0.40;0.40;;;9.80;99.90;;;;;;4989438;28;20046;-85
2024/03/26 09:15:06;;;;;;;0.55;0.52;;;9.70;99.90;;;;;;4993577;28;20045;-84
2024/03/26 09:17:32;;;;;;;2.10;0.35;;;9.90;99.90;;;;;;4994971;28;20042;-85
2024/03/26 09:19:58;;;;;;;0.20;0.20;;;10.10;99.90;;;;;;5015294;28;20037;-84
2024/03/26 09:22:25;;;;;;;0.60;0.47;;;10.20;99.90;;;;;;5009540;28;20061;-87
2024/03/26 09:24:51;;;;;;;0.57;0.50;;;10.30;99.90;;;;;;4998123;28;20037;-85
2024/03/26 09:27:17;;;;;;;1.30;0.68;;;10.00;99.90;;;;;;4975012;28;20039;-85
2024/03/26 09:29:43;;;;;;;0.40;0.40;;;9.90;99.90;;;;;;4975158;28;20341;-85
2024/03/26 09:32:09;;;;;;;0.32;0.32;;;9.70;99.90;;;;;;4988848;28;20044;-88
2024/03/26 09:34:36;;;;;;;0.30;0.30;;;9.70;99.90;;;;;;4998544;28;20037;-87
2024/03/26 09:37:03;;;;;;;1.38;1.17;;;10.10;99.90;;;;;;4994935;28;20333;-88
2024/03/26 09:39:29;;;;;;;0.10;0.10;;;10.20;99.90;;;;;;5000103;28;20057;-83
2024/03/26 09:41:58;;;;;;;0.20;0.20;;;10.40;99.90;;;;;;4938885;28;1485529;-86
2024/03/26 09:44:30;;;;;;;0.52;0.45;;;10.40;99.90;;;;;;4987876;28;20038;-87
2024/03/26 09:47:01;;;;;;;0.68;0.68;;;10.40;99.90;;;;;;4969754;28;20046;-88
2024/03/26 09:49:28;;;;;;;0.63;0.63;;;10.50;99.90;;;;;;4980877;28;20062;-84
2024/03/26 09:51:58;;;;;;;0.77;0.77;;;10.60;99.90;;;;;;5002753;28;20053;-87
2024/03/26 09:54:27;;;;;;;3.73;1.03;;;10.80;99.90;;;;;;4993136;28;20049;-87
2024/03/26 09:56:54;;;;;;;0.25;0.25;;;11.10;99.90;;;;;;4988160;28;20437;-89
2024/03/26 09:59:21;;;;;;;0.95;0.80;;;11.20;99.90;;;;;;4996533;28;20030;-93
2024/03/26 10:01:47;;;;;;;0.30;0.30;;;11.30;99.90;;;;;;4990832;28;20037;-88
2024/03/26 10:04:14;;;;;;;0.82;0.40;;;11.40;99.90;;;;;;4982703;28;20050;-87
2024/03/26 10:06:43;;;;;;;0.20;0.20;;;11.30;99.90;;;;;;5001912;28;20125;-87
2024/03/26 10:09:10;;;;;;;4.03;1.27;;;11.40;99.90;;;;;;4999650;28;20034;-88
2024/03/26 10:11:37;;;;;;;0.40;0.40;;;11.40;99.90;;;;;;4984345;28;20046;-89
2024/03/26 10:14:03;;;;;;;0.65;0.65;;;11.30;99.90;;;;;;4977897;28;20396;-85
2024/03/26 10:16:29;;;;;;;0.30;0.30;;;11.20;99.90;;;;;;4973993;28;20031;-84
2024/03/26 10:18:56;;;;;;;0.20;0.20;;;10.80;99.90;;;;;;4974129;28;20038;-88
2024/03/26 10:21:22;;;;;;;0.40;0.40;;;10.90;99.90;;;;;;4996212;28;20380;-87
2024/03/26 10:23:48;;;;;;;0.93;0.85;;;11.30;99.90;;;;;;4991350;28;20030;-86
2024/03/26 10:26:15;;;;;;;0.50;0.45;;;11.70;99.90;;;;;;4992311;28;20031;-89
2024/03/26 10:28:41;;;;;;;0.93;0.85;;;11.80;99.90;;;;;;4993074;28;20328;-90
2024/03/26 10:31:08;;;;;;;0.20;0.20;;;11.70;99.90;;;;;;4991677;28;20057;-89
2024/03/26 10:33:36;;;;;;;0.65;0.15;;;12.10;99.90;;;;;;5003825;28;20042;-87
2024/03/26 10:36:03;;;;;;;0.43;0.43;;;12.50;99.90;;;;;;4999335;28;20030;-89
2024/03/26 10:38:32;;;;;;;0.30;0.30;;;12.60;97.30;;;;;;5001945;28;20039;-79
2024/03/26 10:41:03;;;;;;;0.10;0.10;;;12.40;96.50;;;;;;4988593;28;20452;-87
2024/03/26 10:43:30;;;;;;;0.20;0.20;;;12.30;97.60;;;;;;5006152;28;20058;-82
2024/03/26 10:45:57;;;;;;;0.57;0.57;;;12.30;98.30;;;;;;5009349;28;20034;-89
2024/03/26 10:48:25;;;;;;;0.30;0.30;;;12.50;96.40;;;;;;5017064;28;20018;-91
2024/03/26 10:50:53;;;;;;;1.20;0.80;;;12.50;97.40;;;;;;5025303;28;20049;-87
2024/03/26 10:53:23;;;;;;;0.65;0.65;;;12.40;98.50;;;;;;5005990;28;20040;-91
2024/03/26 10:55:50;;;;;;;0.85;0.63;;;12.70;95.10;;;;;;5004844;28;20354;-87
2024/03/26 10:58:17;;;;;;;0.45;0.45;;;13.00;95.90;;;;;;5009092;28;20113;-86
2024/03/26 11:00:47;;;;;;;0.43;0.43;;;13.30;95.90;;;;;;5009737;28;20093;-91
2024/03/26 11:03:15;;;;;;;0.38;0.32;;;13.40;94.70;;;;;;5011709;28;20454;-88
2024/03/26 11:05:42;;;;;;;0.20;0.20;;;13.50;92.50;;;;;;5015040;28;20069;-89
2024/03/26 11:08:18;;;;;;;0.20;0.20;;;13.50;93.00;;;;;;5017453;28;20026;-89
2024/03/26 11:11:18;;;;;;;0.30;0.30;;;13.50;91.80;;;;;;5019346;28;20046;-92
2024/03/26 11:13:44;;;;;;;0.57;0.57;;;13.30;95.00;;;;;;4978692;28;20049;-85
2024/03/26 11:16:34;;;;;;;0.35;0.25;;;13.50;92.70;;;;;;5004098;28;20431;-88
2024/03/26 11:19:21;;;;;;;0.63;0.40;;;13.70;88.90;;;;;;5020903;28;20036;-86
2024/03/26 11:21:48;;;;;;;0.40;0.28;;;13.60;89.00;;;;;;5004703;28;20052;-85
2024/03/26 11:24:34;;;;;;;0.10;0.10;;;13.60;90.90;;;;;;5045767;28;20389;-85
2024/03/26 11:27:02;;;;;;;0.60;0.60;;;13.70;91.10;;;;;;5028264;28;20040;-86
2024/03/26 11:29:31;;;;;;;0.65;0.65;;;13.90;89.00;;;;;;5003382;28;20044;-85
2024/03/26 11:31:59;;;;;;;0.10;0.10;;;14.00;87.20;;;;;;5001286;28;20046;-84
2024/03/26 11:34:27;;;;;;;0.80;0.57;;;14.10;86.70;;;;;;5021179;28;20407;-85
2024/03/26 11:36:55;;;;;;;0.20;0.20;;;14.10;87.30;;;;;;5005039;28;20485;-86
2024/03/26 11:39:22;;;;;;;0.57;0.30;;;13.80;80.00;;;;;;5017835;28;20029;-89
2024/03/26 11:41:52;;;;;;;0.10;0.10;;;13.40;82.20;;;;;;5017372;28;20034;-86
2024/03/26 11:44:19;;;;;;;0.35;0.35;;;13.40;86.20;;;;;;5011964;28;20034;-85
2024/03/26 11:46:48;;;;;;;0.73;0.43;;;13.50;83.80;;;;;;5005822;28;20037;-85
2024/03/26 11:49:15;;;;;;;0.50;0.50;;;13.70;86.30;;;;;;5036649;28;20033;-85
2024/03/26 11:51:41;;;;;;;0.50;0.45;;;13.90;84.30;;;;;;4991709;28;20050;-86
2024/03/26 11:54:08;;;;;;;0.10;0.10;;;13.90;83.80;;;;;;5023760;28;20025;-85
2024/03/26 11:56:35;;;;;;;0.60;0.60;;;14.00;76.10;;;;;;5012450;28;20044;-86
2024/03/26 11:59:02;;;;;;;0.43;0.43;;;14.20;75.60;;;;;;5010246;28;20029;-88
2024/03/26 12:01:28;;;;;;;0.45;0.28;;;14.40;72.20;;;;;;4991257;28;20414;-93
2024/03/26 12:04:04;;;;;;;0.10;0.10;;;14.70;71.10;;;;;;5029734;28;20049;-87
2024/03/26 12:06:32;;;;;;;0.20;0.20;;;14.80;66.00;;;;;;5018405;28;20041;-87
2024/03/26 12:08:59;;;;;;;0.10;0.10;;;14.40;63.20;;;;;;5002408;28;20239;-87
2024/03/26 12:11:26;;;;;;;0.20;0.20;;;14.40;64.40;;;;;;4994030;28;20049;-88
2024/03/26 12:13:53;;;;;;;0.20;0.20;;;14.50;59.20;;;;;;5006377;28;20030;-93
2024/03/26 12:16:23;;;;;;;1.50;0.43;;;14.70;56.20;;;;;;5015256;28;20033;-93
2024/03/26 12:18:57;;;;;;;0.20;0.20;;;14.30;59.10;;;;;;5004472;28;20042;-90
2024/03/26 12:21:26;;;;;;;0.20;0.20;;;14.50;59.90;;;;;;5021527;28;20041;-88
2024/03/26 12:23:56;;;;;;;0.22;0.22;;;14.60;56.90;;;;;;5004028;28;20045;-89
2024/03/26 12:26:22;;;;;;;0.28;0.28;;;14.70;61.20;;;;;;5001126;28;20034;-87
2024/03/26 12:28:50;;;;;;;1.85;1.33;;;15.00;55.10;;;;;;5028249;28;20360;-86
2024/03/26 12:31:17;;;;;;;0.43;0.20;;;15.30;52.50;;;;;;5007175;28;20037;-89
2024/03/26 12:33:46;;;;;;;0.85;0.20;;;15.50;52.00;;;;;;5011603;28;20030;-87
2024/03/26 12:36:14;;;;;;;0.35;0.35;;;15.50;49.50;;;;;;5026267;28;20036;-87
2024/03/26 12:38:40;;;;;;;1.00;0.73;;;15.50;53.70;;;;;;5001070;28;20045;-87
2024/03/26 12:41:07;;;;;;;0.65;0.57;;;15.70;53.80;;;;;;5018734;28;20489;-87
2024/03/26 12:43:33;;;;;;;0.13;0.13;;;16.00;56.20;;;;;;4999887;28;20053;-81
2024/03/26 12:46:00;;;;;;;0.57;0.45;;;16.30;52.50;;;;;;5003510;28;20031;-94
2024/03/26 12:48:26;;;;;;;0.10;0.10;;;16.40;51.60;;;;;;5031995;28;20037;-89
2024/03/26 12:50:53;;;;;;;1.55;0.30;;;16.30;46.60;;;;;;5019118;28;20038;-85
2024/03/26 12:53:20;;;;;;;0.65;0.65;;;16.20;40.80;;;;;;5025928;28;20470;-86
2024/03/26 12:55:47;;;;;;;0.20;0.20;;;15.80;41.30;;;;;;5022063;28;20041;-86